Hlavní strana
METAR-TAF:

METAR-TAF

Letiště :

Beni Mellal, Maroko

zeměpisná šířka: 32-24-00N, zeměpisná délka: 06-19-00W, výška: 518 m

Aktuální stav počasí

Zpráva byla vytvořena před 4 hodinami a 16 minutami, v 19:00 UTC
Jihovýchodní vítr 6 kt
Teplota 12°C
Vlhkost vzduchu 82%
Tlak 1025 hPa
Viditelnost 10 km a více
Žádná oblačnost pod 1500 m, nevyskytují se cumulonimby.

METAR: GMMD 241900Z 14006KT CAVOK 12/09 Q1025 NOSIG

Čas: 00:16 (23:16 UTC)


TAF: chybějící

Stav a předpovědi počasí z více než 4 000 letišť (zprávy METAR a TAF).

Červené a žluté tečky na mapě představují dostupné meteorologické stanice.

Když kurzor umístíte na tečku, zobrazí se název stanice.

Pak kliknutím zobrazíte stav a předpověď počasí.

Chcete-li změnit mapu, kliknutím na zelené tlačítko se znaménkem +mapu přiblížíte, kliknutím na zelené tlačítko se znaménkem – mapu oddálíte a kliknutím na zelené šipky přejdete na sousední mapy.


METAR-TAF: